Date,TemperatureHighF,TemperatureAvgF,TemperatureLowF,DewpointHighF,DewpointAvgF,DewpointLowF,HumidityHigh,HumidityAvg,HumidityLow,PressureMaxIn,PressureMinIn,WindSpeedMaxMPH,WindSpeedAvgMPH,GustSpeedMaxMPH,PrecipitationSumIn
2012-8-28,70.6,68.2,64.5,63.0,62.6,62.0,90,82,76,29.91,29.88,0,0,1,0.15
2012-8-29,79.7,69.3,59.2,63.0,59.4,56.0,97,74,45,30.00,29.90,11,2,15,0.00
2012-8-30,82.1,69.1,55.4,63.0,58.4,54.0,97,72,43,30.10,30.02,8,2,11,0.00
2012-8-31,87.5,73.9,59.4,69.0,61.8,57.0,97,70,35,30.08,29.94,14,3,18,0.00
2012-9-1,87.3,76.9,65.7,71.0,65.1,60.0,92,70,42,30.02,29.95,8,2,13,0.00
2012-9-2,77.1,72.6,66.5,73.0,69.4,64.0,96,90,82,30.04,29.96,9,2,13,0.19
2012-9-3,76.4,73.2,71.1,73.0,71.0,69.0,95,92,88,30.05,30.00,9,4,13,0.29
2012-9-4,84.0,76.8,71.2,78.0,73.3,70.0,98,89,72,30.02,29.81,18,4,19,1.15
2012-9-5,82.7,77.0,68.0,74.0,71.0,66.0,94,82,65,29.84,29.76,11,4,15,0.00
2012-9-6,80.6,72.8,66.6,72.0,68.0,65.0,97,85,64,29.90,29.82,7,2,9,0.00
2012-9-7,87.0,76.0,65.8,73.0,69.1,65.0,97,80,56,29.92,29.80,14,3,19,0.00
2012-9-8,82.5,72.0,64.0,73.0,68.3,62.0,97,88,67,29.82,29.58,21,5,26,1.42
2012-9-9,75.2,64.7,55.5,61.0,56.9,51.0,98,78,46,29.94,29.80,12,2,17,0.00
2012-9-10,71.3,61.3,51.6,55.0,50.4,45.0,96,71,39,30.15,29.94,11,3,20,0.00
2012-9-11,74.6,59.6,45.3,54.0,49.4,44.0,97,73,37,30.30,30.16,7,1,10,0.00
2012-9-12,78.1,63.7,48.4,56.0,52.2,47.0,97,71,39,30.36,30.29,7,1,11,0.00
2012-9-13,78.9,65.4,51.8,61.0,55.0,51.0,97,72,42,30.37,30.26,8,2,11,0.00
2012-9-14,78.3,66.3,52.6,63.0,57.7,52.0,97,76,50,30.28,30.08,10,2,10,0.00
2012-9-15,72.0,63.7,53.2,63.0,51.8,48.0,93,68,43,30.20,30.09,15,5,22,0.00
2012-9-16,71.2,59.9,49.1,55.0,49.2,40.0,97,72,33,30.16,30.06,11,2,16,0.00
2012-9-17,74.6,62.4,45.9,63.0,53.5,45.0,97,75,43,30.13,29.98,13,3,17,0.00
2012-9-18,75.4,69.1,63.8,71.0,66.8,62.0,96,92,83,29.97,29.57,24,8,35,1.38
2012-9-19,67.6,60.2,48.4,62.0,50.0,42.0,95,72,40,30.17,29.79,9,3,16,0.00
2012-9-20,71.1,57.7,43.6,54.0,48.9,43.0,97,76,47,30.19,30.08,8,2,11,0.00
2012-9-21,74.6,63.8,51.4,61.0,55.8,49.0,93,77,57,30.09,29.97,11,3,15,0.00
2012-9-22,79.5,69.0,61.5,66.0,62.0,56.0,93,79,60,29.97,29.75,15,5,17,0.00
2012-9-23,65.0,57.2,47.7,56.0,44.8,40.0,90,65,40,30.16,29.88,20,4,21,0.00
2012-9-24,63.9,53.0,44.0,49.0,43.1,38.0,96,72,40,30.23,30.12,12,2,19,0.00
2012-9-25,70.7,58.5,44.1,56.0,48.6,42.0,93,72,46,30.20,30.09,11,3,18,0.00
2012-9-26,77.6,67.6,62.2,64.0,60.2,56.0,95,78,58,30.11,30.02,11,4,20,0.04
2012-9-27,75.4,66.1,60.4,66.0,63.0,60.0,98,90,70,30.17,30.06,6,1,8,0.31
2012-9-28,75.2,67.0,60.2,67.0,61.4,52.0,98,83,63,30.09,29.94,7,2,13,0.08
2012-9-29,63.3,58.4,53.4,55.0,52.3,51.0,94,81,67,29.99,29.91,7,2,11,0.00
2012-9-30,67.6,55.2,48.1,54.0,50.7,47.0,98,86,52,29.91,29.80,8,2,17,0.23
2012-10-1,71.0,57.0,42.1,55.0,49.1,41.0,99,78,44,29.97,29.88,8,1,11,0.02
2012-10-2,64.8,61.8,59.3,64.0,59.5,55.0,98,92,79,29.99,29.91,11,2,12,1.96
2012-10-3,74.3,68.6,64.3,71.0,66.9,64.0,99,94,81,30.11,29.95,7,1,14,0.28
2012-10-4,75.3,68.2,59.0,71.0,65.5,58.0,99,92,68,30.14,30.07,12,1,13,0.01
2012-10-5,77.3,65.0,52.9,62.0,57.4,52.0,98,78,53,30.11,29.93,11,2,13,0.00
2012-10-6,69.8,62.5,51.7,61.0,54.0,43.0,87,74,55,30.03,29.81,15,6,23,0.00
2012-10-7,51.5,48.1,43.3,46.0,43.4,39.0,95,84,68,30.15,30.03,5,1,9,0.10
2012-10-8,49.4,45.1,39.7,45.0,41.5,38.0,95,87,75,30.31,30.15,8,1,10,0.00
2012-10-9,55.2,51.1,45.6,52.0,48.1,43.0,94,89,79,30.23,30.07,7,1,10,0.02
2012-10-10,63.5,56.7,50.0,56.0,49.6,40.0,98,79,54,30.07,29.85,14,4,20,0.04
2012-10-11,57.1,48.4,42.3,40.0,37.3,33.0,85,67,44,30.26,30.05,7,2,13,0.00
2012-10-12,57.1,44.9,36.5,44.0,35.5,30.0,96,72,40,30.46,30.12,14,2,26,0.00
2012-10-13,54.4,42.4,28.5,36.0,31.0,27.0,95,67,40,30.54,30.29,12,2,13,0.00
2012-10-14,69.3,58.4,47.4,56.0,49.5,38.0,90,73,57,30.28,29.91,14,5,19,0.00
2012-10-15,67.7,62.9,56.3,62.0,58.1,48.0,95,84,71,29.91,29.67,16,6,22,0.55
2012-10-16,59.0,52.2,41.3,48.0,42.3,40.0,93,70,53,29.93,29.76,17,4,20,0.00
2012-10-17,62.3,49.0,36.7,48.0,42.4,36.0,97,80,50,30.03,29.93,9,1,11,0.00
2012-10-18,68.1,58.2,47.7,59.0,51.4,45.0,92,79,56,29.98,29.82,16,5,23,0.05
2012-10-19,71.7,63.7,58.5,65.0,60.6,57.0,98,90,74,29.83,29.59,13,4,26,1.53
2012-10-20,61.7,56.0,46.6,58.0,46.5,41.0,98,73,48,29.91,29.66,11,3,19,0.01
2012-10-21,62.2,51.5,41.3,46.0,42.4,40.0,94,73,49,30.11,29.91,15,3,20,0.00
2012-10-22,66.5,54.2,38.6,48.0,43.8,37.0,95,71,46,30.19,30.09,8,2,13,0.00
2012-10-23,68.2,55.9,45.5,62.0,52.2,44.0,95,87,77,30.17,30.04,8,0,10,0.02
2012-10-24,77.8,62.2,49.2,61.0,55.9,48.0,98,82,48,30.15,30.05,5,1,11,0.00
2012-10-25,61.9,59.9,57.8,59.0,57.6,57.0,97,92,88,30.23,30.15,6,2,11,0.00
2012-10-26,65.5,61.7,59.2,59.0,58.0,57.0,94,88,78,30.21,30.07,5,2,8,0.00
2012-10-27,64.9,60.6,56.7,58.0,55.0,52.0,91,82,71,30.07,29.89,8,2,13,0.00
2012-10-28,58.5,54.8,51.1,53.0,50.1,46.0,95,84,72,29.88,29.63,14,4,19,0.44
2012-10-29,57.2,52.0,49.5,56.0,49.4,47.0,97,91,80,29.63,28.30,24,10,42,3.22
2012-10-30,53.8,44.1,40.0,53.0,42.5,38.0,96,94,93,29.47,28.35,25,6,44,0.67
2012-10-31,45.8,42.9,39.7,40.0,38.7,38.0,95,85,77,29.62,29.46,13,4,16,0.00
2012-11-1,47.7,44.8,41.2,41.0,38.8,36.0,84,79,73,29.70,29.61,15,6,20,0.00
2012-11-2,48.7,44.0,37.6,39.0,35.9,33.0,87,74,57,29.87,29.70,15,6,24,0.00
2012-11-3,45.0,42.9,40.7,35.0,32.5,30.0,75,67,61,30.05,29.87,15,6,21,0.00
2012-11-4,42.3,40.5,38.9,32.0,31.1,30.0,73,69,65,30.07,30.03,12,4,17,0.00
2012-11-5,42.3,37.3,30.0,31.0,27.8,25.0,85,69,57,30.20,30.04,16,5,19,0.00
2012-11-6,42.1,34.0,24.3,28.0,25.5,22.0,93,72,50,30.24,30.06,8,2,10,0.00
2012-11-7,41.9,37.8,34.3,31.0,27.4,22.0,81,66,57,30.07,29.89,14,4,19,0.00
2012-11-8,48.8,42.4,38.2,24.0,21.2,17.0,54,44,33,30.04,29.87,14,6,25,0.00
2012-11-9,54.0,42.0,33.3,35.0,30.1,19.0,90,64,47,30.25,30.04,17,3,18,0.00
2012-11-10,56.7,43.7,31.0,43.0,36.7,30.0,95,78,54,30.40,30.24,3,1,7,0.00
2012-11-11,66.8,51.8,37.7,49.0,42.7,36.0,95,74,45,30.48,30.38,7,2,12,0.00
2012-11-12,67.1,57.8,50.0,58.0,52.2,44.0,92,82,68,30.44,30.13,16,5,28,0.02
2012-11-13,61.3,42.6,34.9,59.0,36.5,29.0,95,80,55,30.48,30.13,20,4,27,0.70
2012-11-14,46.4,37.7,28.8,33.0,28.6,26.0,93,71,47,30.57,30.46,10,2,17,0.00
2012-11-15,46.7,36.3,28.1,32.0,29.1,27.0,96,78,51,30.46,30.32,7,1,11,0.00
2012-11-16,48.9,38.3,30.3,33.0,31.0,28.0,94,77,50,30.47,30.32,7,1,12,0.00
2012-11-17,55.3,38.1,26.7,34.0,29.6,26.0,95,75,37,30.63,30.47,6,1,11,0.00
2012-11-18,50.5,38.4,29.1,38.0,33.1,28.0,96,83,60,30.66,30.55,8,1,13,0.00
2012-11-19,51.1,40.0,31.1,40.0,35.2,29.0,96,84,66,30.55,30.26,8,1,11,0.00
2012-11-20,50.2,40.8,32.6,41.0,36.5,31.0,96,85,65,30.25,30.12,4,0,7,0.00
2012-11-21,53.3,37.8,27.6,39.0,31.6,27.0,98,81,45,30.25,30.15,6,1,9,0.00
2012-11-22,54.1,37.5,25.6,39.0,31.6,24.0,95,81,50,30.30,30.16,4,1,6,0.00
2012-11-23,57.3,43.7,28.4,39.0,33.3,27.0,96,70,43,30.16,29.76,23,4,31,0.01
2012-11-24,44.2,37.9,33.2,27.0,22.3,20.0,61,54,46,29.97,29.80,18,8,29,0.00
2012-11-25,37.9,33.4,25.3,24.0,22.0,20.0,85,63,56,30.04,29.93,12,5,19,0.00
2012-11-26,46.9,33.2,22.6,30.0,25.3,20.0,92,75,44,30.26,30.02,11,2,14,0.00
2012-11-27,37.1,34.6,31.9,34.0,32.4,28.0,96,91,78,30.27,30.21,5,1,8,0.49
2012-11-28,40.9,34.6,27.0,32.0,27.0,23.0,93,75,54,30.36,30.24,10,2,17,0.00
2012-11-29,43.7,33.9,27.2,29.0,25.3,22.0,89,72,51,30.43,30.33,14,3,16,0.00
2012-11-30,47.3,35.0,24.7,33.0,28.1,23.0,94,78,51,30.40,30.34,9,1,10,0.00
2012-12-1,49.1,40.7,34.2,43.0,37.7,31.0,96,89,77,30.48,30.37,8,3,15,0.00
2012-12-2,49.9,44.7,40.2,47.0,43.0,39.0,98,93,84,30.41,30.14,9,2,12,0.01
2012-12-3,65.1,52.7,41.5,55.0,49.2,41.0,98,88,68,30.25,30.14,6,1,11,0.00
2012-12-4,66.1,59.1,52.8,56.0,53.3,51.0,92,81,70,30.23,29.96,12,4,17,0.00
2012-12-5,60.2,48.6,34.3,53.0,36.6,22.0,85,64,51,30.30,29.95,23,6,24,0.00
2012-12-6,41.5,32.6,26.1,26.0,23.3,21.0,84,70,51,30.39,30.27,4,1,10,0.00
2012-12-7,42.8,38.5,32.3,42.0,35.6,26.0,97,89,79,30.26,30.00,4,1,7,0.13
2012-12-8,49.2,45.6,42.4,48.0,44.8,42.0,98,97,94,30.04,29.89,5,1,7,0.00
2012-12-9,47.0,43.7,40.8,47.0,42.9,40.0,99,97,92,30.23,30.00,7,2,13,0.27
2012-12-10,58.0,51.0,41.1,56.0,50.3,41.0,99,97,91,29.97,29.57,9,3,20,0.01
2012-12-11,50.0,42.1,32.0,47.0,35.3,27.0,94,77,59,30.23,29.65,14,4,17,0.05
2012-12-12,41.1,34.6,29.9,32.0,29.1,27.0,93,81,60,30.46,30.22,8,1,9,0.00
2012-12-13,45.0,34.3,26.1,32.0,27.1,25.0,96,77,46,30.49,30.36,5,1,9,0.00
2012-12-14,49.5,33.2,22.8,33.0,27.5,22.0,95,82,45,30.36,30.21,7,1,10,0.00
2012-12-15,48.1,37.3,27.2,36.0,30.8,26.0,95,79,60,30.34,30.17,7,2,10,0.01
2012-12-16,49.9,46.3,41.8,46.0,42.9,36.0,97,88,79,30.17,29.87,9,3,13,0.07
2012-12-17,47.3,44.9,43.9,46.0,44.1,43.0,98,97,95,29.89,29.57,9,3,13,0.15
2012-12-18,54.9,46.4,39.0,49.0,40.9,31.0,99,82,64,29.76,29.51,20,5,29,0.02
2012-12-19,45.6,39.3,32.9,36.0,32.4,30.0,89,77,64,30.18,29.77,13,3,21,0.00
2012-12-20,46.0,37.1,28.5,44.0,32.4,27.0,94,84,64,30.22,29.56,34,4,40,0.50
2012-12-21,53.8,41.6,34.0,52.0,35.5,27.0,96,79,66,29.54,29.21,26,12,37,0.96
2012-12-22,39.6,36.4,31.7,30.0,24.4,22.0,87,62,51,29.97,29.45,27,9,34,0.00
2012-12-23,46.6,34.4,26.9,26.0,23.0,18.0,90,65,34,30.05,29.89,12,5,16,0.00
2012-12-24,37.5,30.4,23.4,32.0,26.6,22.0,97,87,62,30.11,29.92,9,1,11,0.00
2012-12-25,41.5,35.2,31.2,35.0,31.5,25.0,98,87,73,30.29,29.91,10,2,13,0.18
2012-12-26,39.2,32.3,28.9,37.0,28.5,24.0,94,86,78,30.30,29.40,19,8,38,0.40
2012-12-27,39.4,34.4,32.4,36.0,29.3,25.0,95,82,72,29.98,29.35,18,8,31,0.10
2012-12-28,37.4,33.2,27.2,28.0,26.9,25.0,91,78,68,30.14,29.97,10,3,17,0.00
2012-12-29,33.5,30.6,28.1,30.0,27.6,26.0,95,88,75,30.05,29.58,9,4,19,0.02
2012-12-30,35.3,32.6,28.9,27.0,23.0,21.0,77,68,57,30.28,29.77,19,7,29,0.02
2012-12-31,39.5,32.2,25.5,30.0,23.4,20.0,81,71,58,30.29,29.97,14,5,20,0.02
2013-1-1,39.5,37.0,30.7,32.0,29.4,21.0,83,74,66,30.05,29.91,8,3,11,0.01